sensor_id;sensor_type;location;lat;lon;timestamp;temperature;humidity
4425;DHT22;2225;53.568;13.266;2024-01-10T00:02:04;0.40;96.30
4425;DHT22;2225;53.568;13.266;2024-01-10T00:04:31;0.40;96.40
4425;DHT22;2225;53.568;13.266;2024-01-10T00:06:58;0.40;96.40
4425;DHT22;2225;53.568;13.266;2024-01-10T00:09:25;0.40;96.70
4425;DHT22;2225;53.568;13.266;2024-01-10T00:11:51;0.30;96.30
4425;DHT22;2225;53.568;13.266;2024-01-10T00:14:18;0.30;96.40
4425;DHT22;2225;53.568;13.266;2024-01-10T00:16:45;0.30;96.50
4425;DHT22;2225;53.568;13.266;2024-01-10T00:19:12;0.30;96.60
4425;DHT22;2225;53.568;13.266;2024-01-10T00:21:39;0.30;96.60
4425;DHT22;2225;53.568;13.266;2024-01-10T00:24:06;0.30;96.70
4425;DHT22;2225;53.568;13.266;2024-01-10T00:26:33;0.30;96.70
4425;DHT22;2225;53.568;13.266;2024-01-10T00:29:00;0.30;96.70
4425;DHT22;2225;53.568;13.266;2024-01-10T00:31:31;0.30;96.50
4425;DHT22;2225;53.568;13.266;2024-01-10T00:33:58;0.30;96.50
4425;DHT22;2225;53.568;13.266;2024-01-10T00:36:26;0.30;96.50
4425;DHT22;2225;53.568;13.266;2024-01-10T00:38:52;0.30;96.70
4425;DHT22;2225;53.568;13.266;2024-01-10T00:41:19;0.30;96.80
4425;DHT22;2225;53.568;13.266;2024-01-10T00:43:46;0.30;96.80
4425;DHT22;2225;53.568;13.266;2024-01-10T00:46:13;0.30;96.80
4425;DHT22;2225;53.568;13.266;2024-01-10T00:48:40;0.30;96.90
4425;DHT22;2225;53.568;13.266;2024-01-10T00:51:07;0.30;96.90
4425;DHT22;2225;53.568;13.266;2024-01-10T00:53:36;0.30;97.00
4425;DHT22;2225;53.568;13.266;2024-01-10T00:56:06;0.20;97.00
4425;DHT22;2225;53.568;13.266;2024-01-10T00:58:33;0.20;97.10
4425;DHT22;2225;53.568;13.266;2024-01-10T01:01:00;0.20;96.90
4425;DHT22;2225;53.568;13.266;2024-01-10T01:03:27;0.20;97.00
4425;DHT22;2225;53.568;13.266;2024-01-10T01:05:55;0.20;97.00
4425;DHT22;2225;53.568;13.266;2024-01-10T01:08:22;0.20;97.00
4425;DHT22;2225;53.568;13.266;2024-01-10T01:10:49;0.20;97.00
4425;DHT22;2225;53.568;13.266;2024-01-10T01:13:16;0.20;97.00
4425;DHT22;2225;53.568;13.266;2024-01-10T01:15:43;0.20;97.10
4425;DHT22;2225;53.568;13.266;2024-01-10T01:18:11;0.20;97.10
4425;DHT22;2225;53.568;13.266;2024-01-10T01:20:39;0.20;97.10
4425;DHT22;2225;53.568;13.266;2024-01-10T01:23:06;0.10;96.90
4425;DHT22;2225;53.568;13.266;2024-01-10T01:25:33;0.10;96.90
4425;DHT22;2225;53.568;13.266;2024-01-10T01:28:00;0.20;96.90
4425;DHT22;2225;53.568;13.266;2024-01-10T01:30:27;0.20;96.90
4425;DHT22;2225;53.568;13.266;2024-01-10T01:32:54;0.10;96.90
4425;DHT22;2225;53.568;13.266;2024-01-10T01:35:21;0.10;96.80
4425;DHT22;2225;53.568;13.266;2024-01-10T01:37:49;0.10;96.80
4425;DHT22;2225;53.568;13.266;2024-01-10T01:40:18;0.10;96.80
4425;DHT22;2225;53.568;13.266;2024-01-10T01:42:45;0.00;96.90
4425;DHT22;2225;53.568;13.266;2024-01-10T01:45:12;0.00;96.80
4425;DHT22;2225;53.568;13.266;2024-01-10T01:47:40;0.00;96.80
4425;DHT22;2225;53.568;13.266;2024-01-10T01:50:08;-0.10;96.70
4425;DHT22;2225;53.568;13.266;2024-01-10T01:52:36;-0.10;96.80
4425;DHT22;2225;53.568;13.266;2024-01-10T01:55:04;-0.10;96.80
4425;DHT22;2225;53.568;13.266;2024-01-10T01:57:32;-0.10;96.70
4425;DHT22;2225;53.568;13.266;2024-01-10T02:00:00;-0.20;96.80
4425;DHT22;2225;53.568;13.266;2024-01-10T02:02:30;-0.20;96.80
4425;DHT22;2225;53.568;13.266;2024-01-10T02:04:58;-0.20;96.80
4425;DHT22;2225;53.568;13.266;2024-01-10T02:07:26;-0.20;97.20
4425;DHT22;2225;53.568;13.266;2024-01-10T02:09:53;-0.20;96.90
4425;DHT22;2225;53.568;13.266;2024-01-10T02:12:21;-0.20;96.90
4425;DHT22;2225;53.568;13.266;2024-01-10T02:14:48;-0.20;97.00
4425;DHT22;2225;53.568;13.266;2024-01-10T02:17:15;-0.20;96.90
4425;DHT22;2225;53.568;13.266;2024-01-10T02:19:42;-0.20;96.90
4425;DHT22;2225;53.568;13.266;2024-01-10T02:22:09;-0.20;96.90
4425;DHT22;2225;53.568;13.266;2024-01-10T02:24:37;-0.20;96.80
4425;DHT22;2225;53.568;13.266;2024-01-10T02:27:04;-0.20;96.80
4425;DHT22;2225;53.568;13.266;2024-01-10T02:29:31;-0.20;96.80
4425;DHT22;2225;53.568;13.266;2024-01-10T02:32:00;-0.20;96.80
4425;DHT22;2225;53.568;13.266;2024-01-10T02:34:27;-0.20;96.70
4425;DHT22;2225;53.568;13.266;2024-01-10T02:36:56;-0.20;96.70
4425;DHT22;2225;53.568;13.266;2024-01-10T02:39:23;-0.20;96.70
4425;DHT22;2225;53.568;13.266;2024-01-10T02:41:50;-0.20;96.60
4425;DHT22;2225;53.568;13.266;2024-01-10T02:44:18;-0.20;96.60
4425;DHT22;2225;53.568;13.266;2024-01-10T02:46:46;-0.20;96.50
4425;DHT22;2225;53.568;13.266;2024-01-10T02:49:13;-0.20;96.50
4425;DHT22;2225;53.568;13.266;2024-01-10T02:51:40;-0.20;96.50
4425;DHT22;2225;53.568;13.266;2024-01-10T02:54:07;-0.20;96.50
4425;DHT22;2225;53.568;13.266;2024-01-10T02:56:34;-0.20;96.50
4425;DHT22;2225;53.568;13.266;2024-01-10T02:59:01;-0.20;96.40
4425;DHT22;2225;53.568;13.266;2024-01-10T03:01:28;-0.20;96.40
4425;DHT22;2225;53.568;13.266;2024-01-10T03:03:55;-0.30;96.30
4425;DHT22;2225;53.568;13.266;2024-01-10T03:06:22;-0.30;96.30
4425;DHT22;2225;53.568;13.266;2024-01-10T03:08:49;-0.30;96.20
4425;DHT22;2225;53.568;13.266;2024-01-10T03:11:16;-0.40;96.20
4425;DHT22;2225;53.568;13.266;2024-01-10T03:13:44;-0.30;96.30
4425;DHT22;2225;53.568;13.266;2024-01-10T03:16:13;-0.40;96.40
4425;DHT22;2225;53.568;13.266;2024-01-10T03:18:40;-0.40;96.50
4425;DHT22;2225;53.568;13.266;2024-01-10T03:21:07;-0.30;96.50
4425;DHT22;2225;53.568;13.266;2024-01-10T03:23:34;-0.30;96.60
4425;DHT22;2225;53.568;13.266;2024-01-10T03:26:01;-0.30;96.60
4425;DHT22;2225;53.568;13.266;2024-01-10T03:28:28;-0.30;96.60
4425;DHT22;2225;53.568;13.266;2024-01-10T03:30:55;-0.30;96.70
4425;DHT22;2225;53.568;13.266;2024-01-10T03:33:22;-0.30;96.70
4425;DHT22;2225;53.568;13.266;2024-01-10T03:35:49;-0.30;96.60
4425;DHT22;2225;53.568;13.266;2024-01-10T03:38:16;-0.30;96.60
4425;DHT22;2225;53.568;13.266;2024-01-10T03:40:43;-0.30;96.60
4425;DHT22;2225;53.568;13.266;2024-01-10T03:43:10;-0.30;96.60
4425;DHT22;2225;53.568;13.266;2024-01-10T03:45:38;-0.30;96.60
4425;DHT22;2225;53.568;13.266;2024-01-10T03:48:06;-0.30;96.50
4425;DHT22;2225;53.568;13.266;2024-01-10T03:50:33;-0.30;96.60
4425;DHT22;2225;53.568;13.266;2024-01-10T03:53:00;-0.20;96.60
4425;DHT22;2225;53.568;13.266;2024-01-10T03:55:28;-0.20;96.60
4425;DHT22;2225;53.568;13.266;2024-01-10T03:57:56;-0.20;96.60
4425;DHT22;2225;53.568;13.266;2024-01-10T04:00:23;-0.20;96.60
4425;DHT22;2225;53.568;13.266;2024-01-10T04:02:52;-0.20;96.60
4425;DHT22;2225;53.568;13.266;2024-01-10T04:05:19;-0.20;96.60
4425;DHT22;2225;53.568;13.266;2024-01-10T04:07:47;-0.20;96.50
4425;DHT22;2225;53.568;13.266;2024-01-10T04:10:14;-0.20;96.40
4425;DHT22;2225;53.568;13.266;2024-01-10T04:12:44;-0.20;96.40
4425;DHT22;2225;53.568;13.266;2024-01-10T04:15:12;-0.20;96.30
4425;DHT22;2225;53.568;13.266;2024-01-10T04:17:39;-0.20;96.30
4425;DHT22;2225;53.568;13.266;2024-01-10T04:20:06;-0.20;96.30
4425;DHT22;2225;53.568;13.266;2024-01-10T04:22:34;-0.20;96.20
4425;DHT22;2225;53.568;13.266;2024-01-10T04:25:03;-0.30;96.60
4425;DHT22;2225;53.568;13.266;2024-01-10T04:27:31;-0.30;96.40
4425;DHT22;2225;53.568;13.266;2024-01-10T04:29:58;-0.30;96.50
4425;DHT22;2225;53.568;13.266;2024-01-10T04:32:26;-0.30;96.50
4425;DHT22;2225;53.568;13.266;2024-01-10T04:34:53;-0.30;96.50
4425;DHT22;2225;53.568;13.266;2024-01-10T04:37:20;-0.30;96.50
4425;DHT22;2225;53.568;13.266;2024-01-10T04:39:47;-0.30;96.40
4425;DHT22;2225;53.568;13.266;2024-01-10T04:42:14;-0.20;96.40
4425;DHT22;2225;53.568;13.266;2024-01-10T04:44:41;-0.20;96.40
4425;DHT22;2225;53.568;13.266;2024-01-10T04:47:08;-0.20;96.30
4425;DHT22;2225;53.568;13.266;2024-01-10T04:49:35;-0.20;96.20
4425;DHT22;2225;53.568;13.266;2024-01-10T04:52:02;-0.10;96.20
4425;DHT22;2225;53.568;13.266;2024-01-10T04:54:29;-0.20;96.10
4425;DHT22;2225;53.568;13.266;2024-01-10T04:56:56;-0.20;96.10
4425;DHT22;2225;53.568;13.266;2024-01-10T04:59:23;-0.30;95.90
4425;DHT22;2225;53.568;13.266;2024-01-10T05:01:50;-0.30;95.90
4425;DHT22;2225;53.568;13.266;2024-01-10T05:04:17;-0.30;95.80
4425;DHT22;2225;53.568;13.266;2024-01-10T05:06:44;-0.30;95.90
4425;DHT22;2225;53.568;13.266;2024-01-10T05:09:12;-0.40;95.90
4425;DHT22;2225;53.568;13.266;2024-01-10T05:11:40;-0.40;95.90
4425;DHT22;2225;53.568;13.266;2024-01-10T05:14:10;-0.40;95.90
4425;DHT22;2225;53.568;13.266;2024-01-10T05:16:37;-0.40;96.00
4425;DHT22;2225;53.568;13.266;2024-01-10T05:19:04;-0.40;96.10
4425;DHT22;2225;53.568;13.266;2024-01-10T05:21:33;-0.40;96.20
4425;DHT22;2225;53.568;13.266;2024-01-10T05:24:00;-0.50;96.20
4425;DHT22;2225;53.568;13.266;2024-01-10T05:26:27;-0.50;96.40
4425;DHT22;2225;53.568;13.266;2024-01-10T05:28:54;-0.50;96.50
4425;DHT22;2225;53.568;13.266;2024-01-10T05:31:21;-0.50;96.60
4425;DHT22;2225;53.568;13.266;2024-01-10T05:33:48;-0.50;96.60
4425;DHT22;2225;53.568;13.266;2024-01-10T05:36:15;-0.50;96.60
4425;DHT22;2225;53.568;13.266;2024-01-10T05:38:42;-0.50;96.70
4425;DHT22;2225;53.568;13.266;2024-01-10T05:41:09;-0.50;96.90
4425;DHT22;2225;53.568;13.266;2024-01-10T05:43:36;-0.50;97.00
4425;DHT22;2225;53.568;13.266;2024-01-10T05:46:03;-0.50;97.00
4425;DHT22;2225;53.568;13.266;2024-01-10T05:48:31;-0.50;96.90
4425;DHT22;2225;53.568;13.266;2024-01-10T05:50:59;-0.50;96.80
4425;DHT22;2225;53.568;13.266;2024-01-10T05:53:28;-0.50;96.70
4425;DHT22;2225;53.568;13.266;2024-01-10T05:55:55;-0.50;96.70
4425;DHT22;2225;53.568;13.266;2024-01-10T05:58:22;-0.50;96.60
4425;DHT22;2225;53.568;13.266;2024-01-10T06:00:49;-0.50;96.40
4425;DHT22;2225;53.568;13.266;2024-01-10T06:03:16;-0.50;96.40
4425;DHT22;2225;53.568;13.266;2024-01-10T06:05:43;-0.60;96.40
4425;DHT22;2225;53.568;13.266;2024-01-10T06:08:10;-0.60;96.50
4425;DHT22;2225;53.568;13.266;2024-01-10T06:10:37;-0.60;96.70
4425;DHT22;2225;53.568;13.266;2024-01-10T06:13:04;-0.60;96.60
4425;DHT22;2225;53.568;13.266;2024-01-10T06:15:31;-0.60;96.60
4425;DHT22;2225;53.568;13.266;2024-01-10T06:17:58;-0.60;96.60
4425;DHT22;2225;53.568;13.266;2024-01-10T06:20:25;-0.60;96.50
4425;DHT22;2225;53.568;13.266;2024-01-10T06:22:52;-0.60;96.70
4425;DHT22;2225;53.568;13.266;2024-01-10T06:25:19;-0.60;96.70
4425;DHT22;2225;53.568;13.266;2024-01-10T06:27:46;-0.60;96.50
4425;DHT22;2225;53.568;13.266;2024-01-10T06:30:13;-0.60;96.30
4425;DHT22;2225;53.568;13.266;2024-01-10T06:32:40;-0.70;96.30
4425;DHT22;2225;53.568;13.266;2024-01-10T06:35:07;-0.70;96.40
4425;DHT22;2225;53.568;13.266;2024-01-10T06:37:37;-0.70;96.40
4425;DHT22;2225;53.568;13.266;2024-01-10T06:40:05;-0.70;96.50
4425;DHT22;2225;53.568;13.266;2024-01-10T06:42:33;-0.70;96.60
4425;DHT22;2225;53.568;13.266;2024-01-10T06:45:00;-0.60;96.60
4425;DHT22;2225;53.568;13.266;2024-01-10T06:47:27;-0.70;96.40
4425;DHT22;2225;53.568;13.266;2024-01-10T06:49:54;-0.70;96.40
4425;DHT22;2225;53.568;13.266;2024-01-10T06:52:21;-0.70;96.40
4425;DHT22;2225;53.568;13.266;2024-01-10T06:54:48;-0.70;96.40
4425;DHT22;2225;53.568;13.266;2024-01-10T06:57:15;-0.70;96.30
4425;DHT22;2225;53.568;13.266;2024-01-10T06:59:42;-0.70;96.20
4425;DHT22;2225;53.568;13.266;2024-01-10T07:02:10;-0.60;96.10
4425;DHT22;2225;53.568;13.266;2024-01-10T07:04:38;-0.70;96.10
4425;DHT22;2225;53.568;13.266;2024-01-10T07:07:05;-0.70;96.10
4425;DHT22;2225;53.568;13.266;2024-01-10T07:09:32;-0.70;95.90
4425;DHT22;2225;53.568;13.266;2024-01-10T07:11:59;-0.70;95.80
4425;DHT22;2225;53.568;13.266;2024-01-10T07:14:26;-0.70;95.90
4425;DHT22;2225;53.568;13.266;2024-01-10T07:16:53;-0.70;95.90
4425;DHT22;2225;53.568;13.266;2024-01-10T07:19:23;-0.70;95.90
4425;DHT22;2225;53.568;13.266;2024-01-10T07:21:50;-0.70;95.90
4425;DHT22;2225;53.568;13.266;2024-01-10T07:24:17;-0.80;95.90
4425;DHT22;2225;53.568;13.266;2024-01-10T07:26:44;-0.80;95.90
4425;DHT22;2225;53.568;13.266;2024-01-10T07:29:12;-0.80;96.00
4425;DHT22;2225;53.568;13.266;2024-01-10T07:31:41;-0.80;96.00
4425;DHT22;2225;53.568;13.266;2024-01-10T07:34:08;-0.80;96.10
4425;DHT22;2225;53.568;13.266;2024-01-10T07:36:42;-0.90;96.20
4425;DHT22;2225;53.568;13.266;2024-01-10T07:39:09;-0.90;96.30
4425;DHT22;2225;53.568;13.266;2024-01-10T07:41:36;-0.90;96.40
4425;DHT22;2225;53.568;13.266;2024-01-10T07:44:03;-0.80;96.50
4425;DHT22;2225;53.568;13.266;2024-01-10T07:46:30;-0.80;96.70
4425;DHT22;2225;53.568;13.266;2024-01-10T07:48:57;-0.80;96.70
4425;DHT22;2225;53.568;13.266;2024-01-10T07:51:27;-0.80;96.70
4425;DHT22;2225;53.568;13.266;2024-01-10T07:53:54;-0.80;96.70
4425;DHT22;2225;53.568;13.266;2024-01-10T07:56:21;-0.70;96.60
4425;DHT22;2225;53.568;13.266;2024-01-10T07:58:48;-0.70;96.60
4425;DHT22;2225;53.568;13.266;2024-01-10T08:01:15;-0.70;96.60
4425;DHT22;2225;53.568;13.266;2024-01-10T08:03:42;-0.70;96.70
4425;DHT22;2225;53.568;13.266;2024-01-10T08:06:09;-0.60;96.80
4425;DHT22;2225;53.568;13.266;2024-01-10T08:08:52;-0.60;96.80
4425;DHT22;2225;53.568;13.266;2024-01-10T08:11:19;-0.60;96.70
4425;DHT22;2225;53.568;13.266;2024-01-10T08:13:46;-0.60;97.00
4425;DHT22;2225;53.568;13.266;2024-01-10T08:16:13;-0.60;96.70
4425;DHT22;2225;53.568;13.266;2024-01-10T08:18:40;-0.60;96.80
4425;DHT22;2225;53.568;13.266;2024-01-10T08:21:08;-0.50;96.80
4425;DHT22;2225;53.568;13.266;2024-01-10T08:23:35;-0.50;96.70
4425;DHT22;2225;53.568;13.266;2024-01-10T08:26:02;-0.50;96.70
4425;DHT22;2225;53.568;13.266;2024-01-10T08:28:29;-0.50;96.70
4425;DHT22;2225;53.568;13.266;2024-01-10T08:30:56;-0.50;96.70
4425;DHT22;2225;53.568;13.266;2024-01-10T08:33:30;-0.40;96.70
4425;DHT22;2225;53.568;13.266;2024-01-10T08:35:58;-0.50;96.80
4425;DHT22;2225;53.568;13.266;2024-01-10T08:38:26;-0.50;96.80
4425;DHT22;2225;53.568;13.266;2024-01-10T08:40:53;-0.50;96.80
4425;DHT22;2225;53.568;13.266;2024-01-10T08:43:20;-0.40;96.90
4425;DHT22;2225;53.568;13.266;2024-01-10T08:45:47;-0.40;96.90
4425;DHT22;2225;53.568;13.266;2024-01-10T08:48:14;-0.40;96.70
4425;DHT22;2225;53.568;13.266;2024-01-10T08:50:42;-0.40;96.60
4425;DHT22;2225;53.568;13.266;2024-01-10T08:53:10;-0.30;96.60
4425;DHT22;2225;53.568;13.266;2024-01-10T08:55:37;-0.30;96.60
4425;DHT22;2225;53.568;13.266;2024-01-10T08:58:04;-0.30;96.60
4425;DHT22;2225;53.568;13.266;2024-01-10T09:00:31;-0.30;96.70
4425;DHT22;2225;53.568;13.266;2024-01-10T09:02:58;-0.20;96.80
4425;DHT22;2225;53.568;13.266;2024-01-10T09:05:26;-0.20;96.50
4425;DHT22;2225;53.568;13.266;2024-01-10T09:07:53;-0.20;96.40
4425;DHT22;2225;53.568;13.266;2024-01-10T09:10:23;-0.10;96.40
4425;DHT22;2225;53.568;13.266;2024-01-10T09:12:50;-0.10;96.30
4425;DHT22;2225;53.568;13.266;2024-01-10T09:15:17;-0.10;96.20
4425;DHT22;2225;53.568;13.266;2024-01-10T09:17:44;-0.10;96.00
4425;DHT22;2225;53.568;13.266;2024-01-10T09:20:12;0.00;95.90
4425;DHT22;2225;53.568;13.266;2024-01-10T09:22:39;-0.10;95.70
4425;DHT22;2225;53.568;13.266;2024-01-10T09:25:07;-0.10;95.80
4425;DHT22;2225;53.568;13.266;2024-01-10T09:27:35;-0.10;95.80
4425;DHT22;2225;53.568;13.266;2024-01-10T09:30:03;-0.10;95.70
4425;DHT22;2225;53.568;13.266;2024-01-10T09:32:31;-0.10;95.80
4425;DHT22;2225;53.568;13.266;2024-01-10T09:34:58;-0.10;95.90
4425;DHT22;2225;53.568;13.266;2024-01-10T09:37:26;0.00;95.90
4425;DHT22;2225;53.568;13.266;2024-01-10T09:39:53;0.00;96.00
4425;DHT22;2225;53.568;13.266;2024-01-10T09:42:20;0.00;96.00
4425;DHT22;2225;53.568;13.266;2024-01-10T09:44:54;0.00;96.10
4425;DHT22;2225;53.568;13.266;2024-01-10T09:47:21;0.10;96.10
4425;DHT22;2225;53.568;13.266;2024-01-10T09:49:48;0.10;96.10
4425;DHT22;2225;53.568;13.266;2024-01-10T09:52:27;0.20;96.00
4425;DHT22;2225;53.568;13.266;2024-01-10T09:54:56;0.20;96.10
4425;DHT22;2225;53.568;13.266;2024-01-10T09:57:24;0.20;96.20
4425;DHT22;2225;53.568;13.266;2024-01-10T09:59:52;0.30;96.30
4425;DHT22;2225;53.568;13.266;2024-01-10T10:02:20;0.30;96.50
4425;DHT22;2225;53.568;13.266;2024-01-10T10:04:56;0.40;96.40
4425;DHT22;2225;53.568;13.266;2024-01-10T10:07:30;0.40;96.00
4425;DHT22;2225;53.568;13.266;2024-01-10T10:09:57;0.50;96.20
4425;DHT22;2225;53.568;13.266;2024-01-10T10:15:18;0.60;96.30
4425;DHT22;2225;53.568;13.266;2024-01-10T10:17:50;0.70;96.10
4425;DHT22;2225;53.568;13.266;2024-01-10T10:20:27;0.70;95.80
4425;DHT22;2225;53.568;13.266;2024-01-10T10:23:06;0.70;95.90
4425;DHT22;2225;53.568;13.266;2024-01-10T10:25:42;0.70;95.80
4425;DHT22;2225;53.568;13.266;2024-01-10T10:28:10;0.80;95.70
4425;DHT22;2225;53.568;13.266;2024-01-10T10:30:55;0.70;95.50
4425;DHT22;2225;53.568;13.266;2024-01-10T10:33:22;0.70;95.70
4425;DHT22;2225;53.568;13.266;2024-01-10T10:35:50;0.80;95.90
4425;DHT22;2225;53.568;13.266;2024-01-10T10:38:22;0.80;95.80
4425;DHT22;2225;53.568;13.266;2024-01-10T10:40:49;0.80;95.80
4425;DHT22;2225;53.568;13.266;2024-01-10T10:43:18;0.80;96.00
4425;DHT22;2225;53.568;13.266;2024-01-10T10:45:49;0.90;96.00
4425;DHT22;2225;53.568;13.266;2024-01-10T10:48:17;0.90;96.10
4425;DHT22;2225;53.568;13.266;2024-01-10T10:53:37;1.00;96.20
4425;DHT22;2225;53.568;13.266;2024-01-10T10:56:06;1.10;96.30
4425;DHT22;2225;53.568;13.266;2024-01-10T10:58:35;1.20;96.20
4425;DHT22;2225;53.568;13.266;2024-01-10T11:01:05;1.20;96.20
4425;DHT22;2225;53.568;13.266;2024-01-10T11:03:35;1.20;96.20
4425;DHT22;2225;53.568;13.266;2024-01-10T11:06:04;1.30;96.30
4425;DHT22;2225;53.568;13.266;2024-01-10T11:08:36;1.30;96.30
4425;DHT22;2225;53.568;13.266;2024-01-10T11:11:21;1.40;96.40
4425;DHT22;2225;53.568;13.266;2024-01-10T11:14:06;1.40;96.30
4425;DHT22;2225;53.568;13.266;2024-01-10T11:16:58;1.50;96.30
4425;DHT22;2225;53.568;13.266;2024-01-10T11:25:42;1.60;96.00
4425;DHT22;2225;53.568;13.266;2024-01-10T11:28:12;1.70;96.00
4425;DHT22;2225;53.568;13.266;2024-01-10T11:30:49;1.70;95.90
4425;DHT22;2225;53.568;13.266;2024-01-10T11:33:32;1.70;95.70
4425;DHT22;2225;53.568;13.266;2024-01-10T11:36:13;1.70;95.70
4425;DHT22;2225;53.568;13.266;2024-01-10T11:38:53;1.80;95.80
4425;DHT22;2225;53.568;13.266;2024-01-10T11:46:46;1.80;95.40
4425;DHT22;2225;53.568;13.266;2024-01-10T11:49:19;1.90;95.60
4425;DHT22;2225;53.568;13.266;2024-01-10T11:51:48;1.90;95.60
4425;DHT22;2225;53.568;13.266;2024-01-10T11:54:44;1.90;95.60
4425;DHT22;2225;53.568;13.266;2024-01-10T11:57:22;1.90;95.10
4425;DHT22;2225;53.568;13.266;2024-01-10T11:59:51;1.90;95.10
4425;DHT22;2225;53.568;13.266;2024-01-10T12:02:23;1.90;95.10
4425;DHT22;2225;53.568;13.266;2024-01-10T12:04:54;1.90;95.30
4425;DHT22;2225;53.568;13.266;2024-01-10T12:07:22;1.80;95.10
4425;DHT22;2225;53.568;13.266;2024-01-10T12:09:50;1.80;95.10
4425;DHT22;2225;53.568;13.266;2024-01-10T12:12:17;1.80;95.20
4425;DHT22;2225;53.568;13.266;2024-01-10T12:14:44;1.80;95.30
4425;DHT22;2225;53.568;13.266;2024-01-10T12:17:12;1.70;95.40
4425;DHT22;2225;53.568;13.266;2024-01-10T12:19:40;1.80;95.40
4425;DHT22;2225;53.568;13.266;2024-01-10T12:22:08;1.80;95.40
4425;DHT22;2225;53.568;13.266;2024-01-10T12:24:43;1.80;95.20
4425;DHT22;2225;53.568;13.266;2024-01-10T12:27:16;1.80;95.10
4425;DHT22;2225;53.568;13.266;2024-01-10T12:29:48;1.90;95.20
4425;DHT22;2225;53.568;13.266;2024-01-10T12:32:22;1.80;95.20
4425;DHT22;2225;53.568;13.266;2024-01-10T12:35:03;1.80;95.20
4425;DHT22;2225;53.568;13.266;2024-01-10T12:37:31;1.80;95.20
4425;DHT22;2225;53.568;13.266;2024-01-10T12:39:58;1.90;95.30
4425;DHT22;2225;53.568;13.266;2024-01-10T12:42:25;1.90;95.20
4425;DHT22;2225;53.568;13.266;2024-01-10T12:44:53;1.90;95.00
4425;DHT22;2225;53.568;13.266;2024-01-10T12:47:21;1.90;95.20
4425;DHT22;2225;53.568;13.266;2024-01-10T12:49:49;1.90;95.20
4425;DHT22;2225;53.568;13.266;2024-01-10T12:52:17;1.90;95.10
4425;DHT22;2225;53.568;13.266;2024-01-10T12:54:48;1.90;95.10
4425;DHT22;2225;53.568;13.266;2024-01-10T12:57:15;1.90;95.00
4425;DHT22;2225;53.568;13.266;2024-01-10T12:59:42;1.90;94.90
4425;DHT22;2225;53.568;13.266;2024-01-10T13:02:09;2.00;95.00
4425;DHT22;2225;53.568;13.266;2024-01-10T13:04:36;1.90;95.00
4425;DHT22;2225;53.568;13.266;2024-01-10T13:07:03;1.90;95.00
4425;DHT22;2225;53.568;13.266;2024-01-10T13:09:30;1.90;95.00
4425;DHT22;2225;53.568;13.266;2024-01-10T13:11:57;1.90;95.10
4425;DHT22;2225;53.568;13.266;2024-01-10T13:14:25;1.90;95.10
4425;DHT22;2225;53.568;13.266;2024-01-10T13:16:52;1.90;95.30
4425;DHT22;2225;53.568;13.266;2024-01-10T13:19:26;1.90;95.40
4425;DHT22;2225;53.568;13.266;2024-01-10T13:21:53;2.00;95.40
4425;DHT22;2225;53.568;13.266;2024-01-10T13:24:20;2.00;95.50
4425;DHT22;2225;53.568;13.266;2024-01-10T13:26:47;2.00;95.60
4425;DHT22;2225;53.568;13.266;2024-01-10T13:29:15;2.10;95.70
4425;DHT22;2225;53.568;13.266;2024-01-10T13:31:42;2.10;95.70
4425;DHT22;2225;53.568;13.266;2024-01-10T13:34:09;2.10;95.60
4425;DHT22;2225;53.568;13.266;2024-01-10T13:36:38;2.10;95.50
4425;DHT22;2225;53.568;13.266;2024-01-10T13:39:05;2.20;95.50
4425;DHT22;2225;53.568;13.266;2024-01-10T13:41:32;2.20;95.40
4425;DHT22;2225;53.568;13.266;2024-01-10T13:43:59;2.20;95.40
4425;DHT22;2225;53.568;13.266;2024-01-10T13:46:26;2.20;95.40
4425;DHT22;2225;53.568;13.266;2024-01-10T13:48:53;2.10;95.50
4425;DHT22;2225;53.568;13.266;2024-01-10T13:51:20;2.20;95.40
4425;DHT22;2225;53.568;13.266;2024-01-10T13:53:47;2.10;95.40
4425;DHT22;2225;53.568;13.266;2024-01-10T13:56:14;2.10;95.40
4425;DHT22;2225;53.568;13.266;2024-01-10T13:58:41;2.10;95.50
4425;DHT22;2225;53.568;13.266;2024-01-10T14:01:08;2.10;95.50
4425;DHT22;2225;53.568;13.266;2024-01-10T14:03:35;2.10;95.40
4425;DHT22;2225;53.568;13.266;2024-01-10T14:06:03;2.10;95.60
4425;DHT22;2225;53.568;13.266;2024-01-10T14:08:31;2.10;95.60
4425;DHT22;2225;53.568;13.266;2024-01-10T14:10:58;2.10;95.60
4425;DHT22;2225;53.568;13.266;2024-01-10T14:13:25;2.10;95.60
4425;DHT22;2225;53.568;13.266;2024-01-10T14:15:52;2.10;95.60
4425;DHT22;2225;53.568;13.266;2024-01-10T14:18:19;2.10;95.60
4425;DHT22;2225;53.568;13.266;2024-01-10T14:20:47;2.00;95.60
4425;DHT22;2225;53.568;13.266;2024-01-10T14:23:14;2.00;95.70
4425;DHT22;2225;53.568;13.266;2024-01-10T14:25:44;2.10;95.70
4425;DHT22;2225;53.568;13.266;2024-01-10T14:28:11;2.10;95.80
4425;DHT22;2225;53.568;13.266;2024-01-10T14:30:37;2.10;95.70
4425;DHT22;2225;53.568;13.266;2024-01-10T14:33:04;2.10;95.70
4425;DHT22;2225;53.568;13.266;2024-01-10T14:35:32;2.00;95.60
4425;DHT22;2225;53.568;13.266;2024-01-10T14:37:59;2.10;95.80
4425;DHT22;2225;53.568;13.266;2024-01-10T14:40:26;2.10;95.90
4425;DHT22;2225;53.568;13.266;2024-01-10T14:42:53;2.10;95.90
4425;DHT22;2225;53.568;13.266;2024-01-10T14:45:20;2.10;95.90
4425;DHT22;2225;53.568;13.266;2024-01-10T14:47:47;2.10;95.90
4425;DHT22;2225;53.568;13.266;2024-01-10T14:50:16;2.10;96.00
4425;DHT22;2225;53.568;13.266;2024-01-10T14:52:43;2.10;96.10
4425;DHT22;2225;53.568;13.266;2024-01-10T14:55:10;2.10;96.10
4425;DHT22;2225;53.568;13.266;2024-01-10T14:57:37;2.10;96.10
4425;DHT22;2225;53.568;13.266;2024-01-10T15:00:04;2.10;96.20
4425;DHT22;2225;53.568;13.266;2024-01-10T15:02:32;2.10;96.20
4425;DHT22;2225;53.568;13.266;2024-01-10T15:05:02;2.10;96.10
4425;DHT22;2225;53.568;13.266;2024-01-10T15:07:29;2.10;96.30
4425;DHT22;2225;53.568;13.266;2024-01-10T15:09:56;2.10;96.30
4425;DHT22;2225;53.568;13.266;2024-01-10T15:12:25;2.10;96.40
4425;DHT22;2225;53.568;13.266;2024-01-10T15:14:52;2.10;96.40
4425;DHT22;2225;53.568;13.266;2024-01-10T15:17:20;2.10;96.40
4425;DHT22;2225;53.568;13.266;2024-01-10T15:19:47;2.10;96.40
4425;DHT22;2225;53.568;13.266;2024-01-10T15:22:14;2.20;96.50
4425;DHT22;2225;53.568;13.266;2024-01-10T15:24:41;2.20;96.70
4425;DHT22;2225;53.568;13.266;2024-01-10T15:27:08;2.10;96.70
4425;DHT22;2225;53.568;13.266;2024-01-10T15:29:40;2.20;96.70
4425;DHT22;2225;53.568;13.266;2024-01-10T15:32:07;2.20;96.80
4425;DHT22;2225;53.568;13.266;2024-01-10T15:34:35;2.20;96.80
4425;DHT22;2225;53.568;13.266;2024-01-10T15:37:02;2.20;96.90
4425;DHT22;2225;53.568;13.266;2024-01-10T15:39:29;2.30;97.00
4425;DHT22;2225;53.568;13.266;2024-01-10T15:41:56;2.30;96.90
4425;DHT22;2225;53.568;13.266;2024-01-10T15:44:23;2.30;96.90
4425;DHT22;2225;53.568;13.266;2024-01-10T15:46:51;2.30;97.00
4425;DHT22;2225;53.568;13.266;2024-01-10T15:49:18;2.30;97.00
4425;DHT22;2225;53.568;13.266;2024-01-10T15:51:45;2.30;97.10
4425;DHT22;2225;53.568;13.266;2024-01-10T15:54:12;2.30;97.10
4425;DHT22;2225;53.568;13.266;2024-01-10T15:56:39;2.40;97.10
4425;DHT22;2225;53.568;13.266;2024-01-10T15:59:10;2.40;97.10
4425;DHT22;2225;53.568;13.266;2024-01-10T16:01:37;2.40;97.20
4425;DHT22;2225;53.568;13.266;2024-01-10T16:04:04;2.40;97.20
4425;DHT22;2225;53.568;13.266;2024-01-10T16:06:32;2.40;97.30
4425;DHT22;2225;53.568;13.266;2024-01-10T16:09:00;2.40;97.30
4425;DHT22;2225;53.568;13.266;2024-01-10T16:11:27;2.40;97.30
4425;DHT22;2225;53.568;13.266;2024-01-10T16:13:55;2.50;97.30
4425;DHT22;2225;53.568;13.266;2024-01-10T16:16:26;2.50;97.40
4425;DHT22;2225;53.568;13.266;2024-01-10T16:18:57;2.50;97.50